Weather at Earwood Ranch Airport [CLOSED]

Public forecast

Using degrees Fahrenheit for public forecast. Weather courtesy of forecast.io.

Closest aviation weather report (METAR) to Earwood Ranch Airport

Closest report is Sonora Municipal Airport, 24.1 nm (44.7 km) N. Retrieved 2022/07/05 18:15 UTC (5 minutes ago):

KSOA 051815Z AUTO 15008G17KT 10SM 31/20 A3009 RMK AO2

Closest aviation forecast (TAF) to Earwood Ranch Airport

Closest forecast is Sonora Municipal Airport, 24.1 nm (44.7 km) N. Retrieved 2022/07/05 18:22 UTC (0 seconds ago):

TAF KSOA 051720Z 0518/0618 17012G19KT P6SM SCT250 FM060100 15008KT P6SM SKC FM061500 17011G18KT P6SM SKC